createdAt,value
2018-07-09T00:01:07.593Z,17.40
2018-07-09T00:06:10.681Z,17.30
2018-07-09T00:11:13.656Z,17.20
2018-07-09T00:16:16.708Z,17.10
2018-07-09T00:21:19.751Z,17.00
2018-07-09T00:26:22.791Z,16.90
2018-07-09T00:31:25.837Z,16.80
2018-07-09T00:36:28.865Z,16.60
2018-07-09T00:41:31.919Z,16.50
2018-07-09T00:46:34.954Z,16.40
2018-07-09T00:51:37.998Z,16.30
2018-07-09T00:56:41.040Z,16.20
2018-07-09T01:01:44.133Z,16.00
2018-07-09T01:06:47.172Z,15.90
2018-07-09T01:12:00.177Z,15.90
2018-07-09T01:17:03.224Z,15.80
2018-07-09T01:22:06.661Z,15.80
2018-07-09T01:27:09.697Z,15.80
2018-07-09T01:32:12.754Z,15.60
2018-07-09T01:37:15.788Z,15.50
2018-07-09T01:42:18.825Z,15.50
2018-07-09T01:47:21.865Z,15.40
2018-07-09T01:52:24.917Z,15.40
2018-07-09T01:57:27.957Z,15.30
2018-07-09T02:02:30.993Z,15.20
2018-07-09T02:07:34.054Z,15.10
2018-07-09T02:12:37.097Z,15.00
2018-07-09T02:17:40.161Z,14.80
2018-07-09T02:22:43.213Z,14.70
2018-07-09T02:27:46.248Z,14.70
2018-07-09T02:32:49.297Z,14.70
2018-07-09T02:37:52.344Z,14.70
2018-07-09T02:42:55.381Z,14.60
2018-07-09T02:47:58.623Z,14.50
2018-07-09T02:53:01.685Z,14.40
2018-07-09T02:58:04.776Z,14.40
2018-07-09T03:03:07.926Z,14.40
2018-07-09T03:08:10.978Z,14.50
2018-07-09T03:13:14.026Z,14.50
2018-07-09T03:18:17.061Z,14.50
2018-07-09T03:23:20.121Z,14.40
2018-07-09T03:28:23.180Z,14.30
2018-07-09T03:33:26.222Z,14.30
2018-07-09T03:38:29.269Z,14.20
2018-07-09T03:43:32.337Z,14.10
2018-07-09T03:48:35.378Z,14.10
2018-07-09T03:53:38.425Z,14.00
2018-07-09T03:58:41.478Z,14.00
2018-07-09T04:03:44.521Z,14.10
2018-07-09T04:08:47.569Z,14.20
2018-07-09T04:13:50.628Z,14.30
2018-07-09T04:18:53.757Z,14.20
2018-07-09T04:23:56.824Z,14.20
2018-07-09T04:28:59.868Z,14.30
2018-07-09T04:34:02.993Z,14.40
2018-07-09T04:39:06.817Z,14.50
2018-07-09T04:44:09.871Z,14.70
2018-07-09T04:49:12.960Z,14.80
2018-07-09T04:54:16.014Z,14.90
2018-07-09T04:59:19.053Z,15.10
2018-07-09T05:04:22.139Z,15.30
2018-07-09T05:09:25.154Z,15.70
2018-07-09T05:14:28.200Z,15.90
2018-07-09T05:19:31.271Z,16.00
2018-07-09T05:24:34.329Z,16.10
2018-07-09T05:29:37.477Z,16.20
2018-07-09T05:34:40.697Z,16.30
2018-07-09T05:39:44.210Z,16.30
2018-07-09T05:44:47.256Z,16.40
2018-07-09T05:49:50.877Z,16.60
2018-07-09T05:54:53.928Z,16.90
2018-07-09T05:59:56.984Z,17.20
2018-07-09T06:05:00.037Z,17.50
2018-07-09T06:10:03.159Z,17.70
2018-07-09T06:15:06.220Z,17.80
2018-07-09T06:20:09.257Z,18.00
2018-07-09T06:25:12.323Z,18.20
2018-07-09T06:30:15.381Z,18.20
2018-07-09T06:35:18.966Z,18.20
2018-07-09T06:40:22.014Z,18.40
2018-07-09T06:45:25.049Z,18.60
2018-07-09T06:50:28.113Z,18.70
2018-07-09T06:55:31.157Z,19.00
2018-07-09T07:00:34.229Z,19.10
2018-07-09T07:05:37.269Z,19.20
2018-07-09T07:10:40.321Z,19.40
2018-07-09T07:15:43.377Z,19.60
2018-07-09T07:20:46.423Z,19.70
2018-07-09T07:25:49.464Z,19.90
2018-07-09T07:30:52.498Z,20.00
2018-07-09T07:35:55.561Z,20.20
2018-07-09T07:40:58.597Z,20.40
2018-07-09T07:46:01.681Z,20.50
2018-07-09T07:51:04.847Z,20.70
2018-07-09T07:56:07.921Z,21.00
2018-07-09T08:01:10.957Z,21.20
2018-07-09T08:06:14.000Z,21.30
2018-07-09T08:11:17.037Z,21.30
2018-07-09T08:16:20.081Z,21.40
2018-07-09T08:21:23.122Z,21.60
2018-07-09T08:26:26.177Z,21.80
2018-07-09T08:31:29.269Z,22.00
2018-07-09T08:36:32.286Z,22.30
2018-07-09T08:41:35.334Z,22.40
2018-07-09T08:46:38.377Z,22.50
2018-07-09T08:51:41.430Z,22.70
2018-07-09T08:56:44.509Z,22.80
2018-07-09T09:01:47.544Z,22.90
2018-07-09T09:06:50.592Z,23.00
2018-07-09T09:11:53.633Z,23.10
2018-07-09T09:16:56.689Z,23.10
2018-07-09T09:21:59.817Z,23.10
2018-07-09T09:27:02.915Z,23.30
2018-07-09T09:32:05.957Z,23.30
2018-07-09T09:37:09.225Z,23.30
2018-07-09T09:42:12.264Z,23.40
2018-07-09T09:47:15.317Z,23.40
2018-07-09T09:52:18.662Z,23.40
2018-07-09T09:57:21.710Z,23.40
2018-07-09T10:02:24.753Z,23.40
2018-07-09T10:07:27.796Z,23.50
2018-07-09T10:12:30.837Z,23.50
2018-07-09T10:17:33.897Z,23.60
2018-07-09T10:22:36.941Z,23.40
2018-07-09T10:27:39.978Z,23.30
2018-07-09T10:32:43.013Z,23.20
2018-07-09T10:37:46.046Z,23.10
2018-07-09T10:42:49.099Z,23.00
2018-07-09T10:47:52.137Z,23.10
2018-07-09T10:52:55.185Z,23.10
2018-07-09T10:57:58.220Z,23.10
2018-07-09T11:03:01.310Z,23.10
2018-07-09T11:08:04.360Z,23.10
2018-07-09T11:13:07.461Z,23.10
2018-07-09T11:18:10.517Z,23.20
2018-07-09T11:23:13.662Z,23.10
2018-07-09T11:28:16.708Z,23.00
2018-07-09T11:33:19.746Z,22.80
2018-07-09T11:38:22.793Z,22.70
2018-07-09T11:43:25.845Z,22.60
2018-07-09T11:48:28.889Z,22.50
2018-07-09T11:53:32.760Z,22.40
2018-07-09T11:58:35.814Z,22.30
2018-07-09T12:03:38.841Z,22.30
2018-07-09T12:08:41.889Z,22.20
2018-07-09T12:13:44.997Z,22.20
2018-07-09T12:18:48.034Z,22.20
2018-07-09T12:23:51.079Z,22.20
2018-07-09T12:28:54.147Z,22.30
2018-07-09T12:33:57.185Z,22.30
2018-07-09T12:39:00.236Z,22.40
2018-07-09T12:44:03.326Z,22.60
2018-07-09T12:49:06.356Z,22.80
2018-07-09T12:54:09.405Z,23.00
2018-07-09T12:59:12.509Z,23.10
2018-07-09T13:04:16.671Z,23.20
2018-07-09T13:09:19.705Z,23.30
2018-07-09T13:14:22.792Z,23.30
2018-07-09T13:19:25.814Z,23.40
2018-07-09T13:24:28.877Z,23.50
2018-07-09T13:29:31.912Z,23.50
2018-07-09T13:34:34.981Z,23.60
2018-07-09T13:39:38.029Z,23.60
2018-07-09T13:44:41.069Z,23.70
2018-07-09T13:49:44.120Z,23.80
2018-07-09T13:54:47.173Z,23.90
2018-07-09T13:59:50.221Z,24.00
2018-07-09T14:04:53.268Z,24.00
2018-07-09T14:09:56.321Z,24.20
2018-07-09T14:14:59.360Z,24.30
2018-07-09T14:20:24.037Z,24.40
2018-07-09T14:25:27.086Z,24.40
2018-07-09T14:30:31.880Z,24.30
2018-07-09T14:35:35.090Z,24.30
2018-07-09T14:40:38.148Z,24.30
2018-07-09T14:45:41.196Z,24.30
2018-07-09T14:50:44.279Z,24.30
2018-07-09T14:55:47.308Z,24.00
2018-07-09T15:00:50.360Z,23.90
2018-07-09T15:05:53.434Z,23.80
2018-07-09T15:10:56.500Z,23.70
2018-07-09T15:15:59.572Z,23.60
2018-07-09T15:21:02.696Z,23.60
2018-07-09T15:26:05.703Z,23.60
2018-07-09T15:31:08.765Z,23.60
2018-07-09T15:36:11.845Z,23.60
2018-07-09T15:41:14.919Z,23.60
2018-07-09T15:46:17.993Z,23.60
2018-07-09T15:51:22.102Z,23.50
2018-07-09T15:56:25.771Z,23.40
2018-07-09T16:01:29.257Z,23.40
2018-07-09T16:06:32.328Z,23.40
2018-07-09T16:11:35.649Z,23.40
2018-07-09T16:16:38.718Z,23.30
2018-07-09T16:21:41.841Z,23.30
2018-07-09T16:26:44.953Z,23.30
2018-07-09T16:31:48.014Z,23.30
2018-07-09T16:36:51.074Z,23.20
2018-07-09T16:41:54.137Z,23.20
2018-07-09T16:46:57.209Z,23.20
2018-07-09T16:52:00.233Z,23.20
2018-07-09T16:57:03.289Z,23.10
2018-07-09T17:02:06.651Z,23.00
2018-07-09T17:07:09.700Z,22.70
2018-07-09T17:12:12.753Z,22.40
2018-07-09T17:17:15.895Z,22.10
2018-07-09T17:22:18.997Z,22.00
2018-07-09T17:27:23.120Z,21.90
2018-07-09T17:32:26.307Z,21.90
2018-07-09T17:37:29.320Z,21.80
2018-07-09T17:42:32.417Z,21.90
2018-07-09T17:47:35.498Z,21.90
2018-07-09T17:52:38.549Z,21.90
2018-07-09T17:57:41.641Z,21.80
2018-07-09T18:02:44.733Z,21.70
2018-07-09T18:07:47.757Z,21.70
2018-07-09T18:12:50.830Z,21.70
2018-07-09T18:17:53.941Z,21.50
2018-07-09T18:22:57.034Z,21.40
2018-07-09T18:28:00.102Z,21.30
2018-07-09T18:33:03.203Z,21.20
2018-07-09T18:38:06.352Z,21.20
2018-07-09T18:43:09.397Z,21.00
2018-07-09T18:48:16.238Z,21.00
2018-07-09T18:53:19.351Z,20.90
2018-07-09T18:58:23.651Z,20.80
2018-07-09T19:03:26.661Z,20.80
2018-07-09T19:08:29.714Z,20.70
2018-07-09T19:13:32.896Z,20.60
2018-07-09T19:18:47.334Z,20.40
2018-07-09T19:23:49.544Z,20.30
2018-07-09T19:28:51.847Z,20.20
2018-07-09T19:33:54.022Z,20.10
2018-07-09T19:38:56.201Z,20.00
2018-07-09T19:43:58.364Z,20.00
2018-07-09T19:49:01.477Z,19.90
2018-07-09T19:54:03.646Z,19.80
2018-07-09T19:59:05.833Z,19.70
2018-07-09T20:04:07.985Z,19.60
2018-07-09T20:09:15.621Z,19.60
2018-07-09T20:16:27.005Z,19.50
2018-07-09T20:21:29.869Z,19.40
2018-07-09T20:26:32.025Z,19.30
2018-07-09T20:31:34.172Z,19.20
2018-07-09T20:36:36.321Z,19.20
2018-07-09T20:41:38.462Z,19.10
2018-07-09T20:46:40.609Z,19.10
2018-07-09T20:51:42.761Z,18.90
2018-07-09T20:56:44.901Z,18.90
2018-07-09T21:01:47.049Z,18.80
2018-07-09T21:06:49.189Z,18.70
2018-07-09T21:11:51.333Z,18.60
2018-07-09T21:16:53.484Z,18.60
2018-07-09T21:21:55.686Z,18.50
2018-07-09T21:26:57.787Z,18.50
2018-07-09T21:31:59.953Z,18.40
2018-07-09T21:37:02.116Z,18.40
2018-07-09T21:42:04.273Z,18.30
2018-07-09T21:47:06.429Z,18.30
2018-07-09T21:52:08.577Z,18.20
2018-07-09T21:57:10.757Z,18.10
2018-07-09T22:02:12.925Z,18.00
2018-07-09T22:07:15.070Z,18.00
2018-07-09T22:12:17.217Z,17.90
2018-07-09T22:17:19.360Z,17.90
2018-07-09T22:22:21.508Z,17.80
2018-07-09T22:27:23.661Z,17.70
2018-07-09T22:32:26.708Z,17.70
2018-07-09T22:37:29.750Z,17.60
2018-07-09T22:42:32.802Z,17.50
2018-07-09T22:47:35.852Z,17.50
2018-07-09T22:52:38.937Z,17.40
2018-07-09T22:57:41.997Z,17.20
2018-07-09T23:02:46.661Z,17.10
2018-07-09T23:07:49.705Z,17.10
2018-07-09T23:13:19.260Z,17.10
2018-07-09T23:18:34.101Z,17.10
2018-07-09T23:23:36.250Z,17.10
2018-07-09T23:28:38.401Z,17.10
2018-07-09T23:33:40.549Z,17.10
2018-07-09T23:38:42.692Z,17.00
2018-07-09T23:43:44.834Z,17.00
2018-07-09T23:48:46.981Z,17.00
2018-07-09T23:53:49.128Z,17.00
2018-07-09T23:59:29.416Z,16.90
